createdAt,value
2023-05-25T00:01:01.144Z,72.69
2023-05-25T00:03:32.969Z,72.61
2023-05-25T00:06:02.451Z,72.71
2023-05-25T00:08:30.859Z,72.63
2023-05-25T00:10:59.369Z,73.62
2023-05-25T00:13:27.641Z,73.16
2023-05-25T00:15:55.995Z,73.34
2023-05-25T00:18:24.902Z,73.56
2023-05-25T00:20:55.127Z,72.69
2023-05-25T00:23:23.418Z,73.81
2023-05-25T00:25:51.707Z,73.44
2023-05-25T00:28:20.013Z,73.14
2023-05-25T00:30:48.494Z,73.47
2023-05-25T00:33:16.783Z,73.34
2023-05-25T00:35:45.544Z,73.73
2023-05-25T00:38:18.950Z,73.43
2023-05-25T00:40:47.407Z,73.09
2023-05-25T00:43:16.026Z,72.80
2023-05-25T00:45:44.584Z,72.87
2023-05-25T00:48:13.853Z,73.87
2023-05-25T00:50:45.655Z,73.95
2023-05-25T00:53:15.164Z,73.25
2023-05-25T00:55:51.092Z,74.17
2023-05-25T00:58:23.336Z,73.66
2023-05-25T01:00:53.451Z,73.28
2023-05-25T01:03:27.719Z,73.00
2023-05-25T01:05:58.494Z,72.75
2023-05-25T01:08:28.189Z,72.69
2023-05-25T01:10:59.805Z,74.02
2023-05-25T01:13:29.980Z,73.92
2023-05-25T01:15:59.915Z,73.48
2023-05-25T01:18:28.339Z,73.02
2023-05-25T01:21:13.195Z,73.80
2023-05-25T01:23:49.188Z,73.68
2023-05-25T01:26:19.563Z,73.71
2023-05-25T01:28:53.192Z,73.21
2023-05-25T01:31:24.206Z,73.61
2023-05-25T01:33:54.773Z,73.09
2023-05-25T01:36:24.413Z,73.10
2023-05-25T01:38:52.675Z,73.16
2023-05-25T01:41:21.567Z,73.40
2023-05-25T01:43:49.978Z,73.00
2023-05-25T01:46:29.096Z,73.16
2023-05-25T01:49:10.223Z,72.78
2023-05-25T01:51:47.328Z,72.94
2023-05-25T01:54:20.615Z,72.86
2023-05-25T01:56:51.139Z,72.98
2023-05-25T01:59:23.129Z,73.55
2023-05-25T02:01:54.570Z,73.32
2023-05-25T02:04:27.804Z,74.20
2023-05-25T02:06:58.499Z,73.67
2023-05-25T02:09:26.832Z,74.01
2023-05-25T02:11:56.056Z,73.68
2023-05-25T02:14:24.404Z,73.12
2023-05-25T02:16:52.655Z,73.98
2023-05-25T02:19:20.949Z,74.05
2023-05-25T02:21:49.204Z,74.83
2023-05-25T02:24:18.906Z,74.78
2023-05-25T02:26:47.140Z,74.73
2023-05-25T02:29:15.501Z,75.21
2023-05-25T02:31:43.831Z,75.64
2023-05-25T02:34:13.798Z,74.85
2023-05-25T02:36:43.437Z,75.44
2023-05-25T02:39:12.240Z,74.84
2023-05-25T02:41:42.052Z,75.74
2023-05-25T02:44:10.270Z,74.79
2023-05-25T02:46:38.565Z,74.77
2023-05-25T02:49:07.824Z,75.89
2023-05-25T02:51:37.506Z,75.10
2023-05-25T02:54:06.848Z,75.60
2023-05-25T02:56:35.568Z,74.92
2023-05-25T02:59:07.685Z,75.59
2023-05-25T03:01:36.661Z,75.08
2023-05-25T03:04:05.654Z,75.43
2023-05-25T03:06:38.148Z,75.21
2023-05-25T03:09:16.202Z,75.38
2023-05-25T03:11:45.526Z,75.09
2023-05-25T03:14:18.672Z,75.69
2023-05-25T03:16:54.366Z,75.98
2023-05-25T03:19:24.484Z,76.14
2023-05-25T03:21:52.750Z,76.11
2023-05-25T03:24:21.216Z,75.65
2023-05-25T03:26:49.694Z,76.14
2023-05-25T03:29:21.644Z,75.74
2023-05-25T03:31:50.321Z,75.38
2023-05-25T03:34:19.903Z,76.33
2023-05-25T03:36:48.179Z,75.96
2023-05-25T03:39:18.911Z,76.56
2023-05-25T03:41:47.240Z,75.62
2023-05-25T03:44:15.677Z,76.65
2023-05-25T03:46:46.390Z,76.71
2023-05-25T03:49:14.976Z,76.45
2023-05-25T03:51:43.659Z,77.22
2023-05-25T03:54:12.633Z,76.91
2023-05-25T03:56:40.912Z,77.02
2023-05-25T03:59:09.202Z,77.37
2023-05-25T04:02:01.031Z,76.57
2023-05-25T04:04:31.618Z,76.43
2023-05-25T04:07:01.604Z,76.60
2023-05-25T04:09:31.515Z,77.25
2023-05-25T04:11:59.756Z,77.04
2023-05-25T04:14:28.002Z,77.16
2023-05-25T04:16:56.252Z,77.58
2023-05-25T04:19:24.501Z,77.67
2023-05-25T04:21:54.135Z,77.43
2023-05-25T04:24:23.262Z,77.40
2023-05-25T04:26:51.596Z,77.54
2023-05-25T04:29:20.053Z,78.21
2023-05-25T04:32:04.246Z,77.21
2023-05-25T04:34:51.003Z,77.26
2023-05-25T04:37:27.194Z,77.73
2023-05-25T04:39:57.679Z,77.08
2023-05-25T04:42:26.960Z,77.19
2023-05-25T04:44:56.625Z,76.68
2023-05-25T04:47:26.106Z,76.67
2023-05-25T04:49:54.729Z,77.13
2023-05-25T04:52:25.994Z,77.45
2023-05-25T04:54:55.548Z,77.03
2023-05-25T04:57:24.082Z,76.35
2023-05-25T04:59:53.221Z,75.49
2023-05-25T05:02:21.535Z,75.78
2023-05-25T05:04:52.494Z,75.68
2023-05-25T05:07:21.146Z,75.55
2023-05-25T05:09:51.215Z,75.78
2023-05-25T05:12:23.812Z,76.60
2023-05-25T05:14:54.235Z,75.50
2023-05-25T05:17:23.058Z,75.39
2023-05-25T05:19:51.882Z,75.28
2023-05-25T05:22:20.346Z,75.49
2023-05-25T05:24:50.033Z,75.04
2023-05-25T05:27:26.256Z,74.82
2023-05-25T05:29:59.718Z,74.95
2023-05-25T05:32:28.342Z,74.65
2023-05-25T05:34:57.768Z,74.16
2023-05-25T05:37:46.115Z,74.19
2023-05-25T05:40:16.031Z,73.97
2023-05-25T05:42:44.320Z,73.71
2023-05-25T05:45:13.861Z,73.34
2023-05-25T05:47:42.151Z,73.38
2023-05-25T05:50:11.316Z,73.75
2023-05-25T05:52:41.698Z,73.42
2023-05-25T05:55:11.815Z,73.19
2023-05-25T05:57:43.213Z,72.85
2023-05-25T06:00:13.544Z,72.76
2023-05-25T06:02:44.590Z,73.15
2023-05-25T06:05:20.226Z,73.52
2023-05-25T06:07:49.514Z,72.24
2023-05-25T06:10:19.775Z,72.65
2023-05-25T06:13:00.183Z,72.32
2023-05-25T06:15:28.624Z,72.24
2023-05-25T06:17:59.926Z,72.18
2023-05-25T06:20:28.984Z,71.98
2023-05-25T06:22:57.369Z,71.17
2023-05-25T06:25:25.708Z,71.16
2023-05-25T06:27:55.857Z,71.76
2023-05-25T06:30:24.294Z,71.92
2023-05-25T06:32:53.415Z,72.17
2023-05-25T06:35:21.796Z,73.05
2023-05-25T06:37:52.782Z,71.91
2023-05-25T06:40:21.638Z,71.91
2023-05-25T06:46:18.906Z,72.69
2023-05-25T06:48:47.446Z,71.77
2023-05-25T06:51:16.178Z,70.47
2023-05-25T06:53:44.846Z,70.61
2023-05-25T06:56:13.814Z,70.48
2023-05-25T06:58:46.754Z,71.96
2023-05-25T07:01:21.635Z,70.67
2023-05-25T07:05:05.759Z,69.87
2023-05-25T07:07:34.370Z,70.35
2023-05-25T07:10:04.889Z,69.54
2023-05-25T07:12:33.088Z,70.00
2023-05-25T07:15:01.384Z,71.47
2023-05-25T07:17:31.559Z,70.20
2023-05-25T07:20:00.030Z,69.00
2023-05-25T07:22:28.296Z,69.07
2023-05-25T07:24:56.522Z,69.53
2023-05-25T07:27:25.533Z,68.13
2023-05-25T07:30:18.191Z,67.87
2023-05-25T07:32:47.858Z,68.28
2023-05-25T07:35:16.408Z,68.96
2023-05-25T07:37:44.676Z,67.72
2023-05-25T07:40:14.070Z,67.65
2023-05-25T07:42:42.316Z,67.86
2023-05-25T07:45:12.631Z,67.44
2023-05-25T07:47:40.928Z,68.11
2023-05-25T07:50:12.119Z,67.32
2023-05-25T07:52:40.372Z,67.93
2023-05-25T07:55:09.901Z,67.60
2023-05-25T07:57:38.345Z,68.19
2023-05-25T08:00:09.030Z,68.46
2023-05-25T08:02:43.260Z,67.42
2023-05-25T08:05:17.093Z,68.15
2023-05-25T08:07:46.710Z,68.80
2023-05-25T08:10:15.046Z,67.96
2023-05-25T08:12:49.625Z,68.84
2023-05-25T08:15:18.880Z,67.71
2023-05-25T08:17:49.393Z,67.46
2023-05-25T08:20:19.321Z,66.71
2023-05-25T08:22:47.612Z,65.29
2023-05-25T08:25:15.974Z,66.46
2023-05-25T08:27:44.295Z,66.97
2023-05-25T08:30:13.468Z,66.00
2023-05-25T08:32:42.173Z,64.98
2023-05-25T08:35:11.092Z,63.57
2023-05-25T08:37:41.111Z,62.23
2023-05-25T08:40:15.535Z,64.10
2023-05-25T08:42:44.861Z,65.34
2023-05-25T08:45:26.464Z,63.42
2023-05-25T08:48:05.628Z,63.86
2023-05-25T08:50:35.416Z,63.17
2023-05-25T08:53:07.503Z,63.37
2023-05-25T08:55:38.910Z,63.93
2023-05-25T08:58:16.242Z,62.48
2023-05-25T09:00:54.662Z,63.05
2023-05-25T09:03:23.440Z,62.26
2023-05-25T09:05:52.710Z,62.61
2023-05-25T09:08:24.074Z,61.85
2023-05-25T09:10:53.632Z,62.45
2023-05-25T09:13:23.087Z,63.15
2023-05-25T09:15:54.998Z,63.35
2023-05-25T09:18:23.282Z,63.12
2023-05-25T09:20:52.266Z,61.04
2023-05-25T09:23:22.967Z,61.88
2023-05-25T09:25:52.724Z,61.45
2023-05-25T09:28:26.989Z,61.55
2023-05-25T09:30:55.956Z,61.30
2023-05-25T09:33:24.248Z,61.62
2023-05-25T09:35:53.261Z,61.33
2023-05-25T09:38:23.673Z,59.78
2023-05-25T09:40:52.738Z,62.30
2023-05-25T09:43:36.590Z,61.20
2023-05-25T09:46:08.830Z,61.37
2023-05-25T09:48:38.065Z,60.72
2023-05-25T09:51:08.422Z,59.48
2023-05-25T09:53:38.168Z,61.03
2023-05-25T09:56:07.546Z,60.78
2023-05-25T09:58:36.271Z,61.01
2023-05-25T10:01:05.253Z,60.26
2023-05-25T10:03:59.449Z,59.72
2023-05-25T10:06:34.236Z,59.94
2023-05-25T10:09:04.931Z,61.01
2023-05-25T10:11:36.217Z,62.49
2023-05-25T10:14:08.522Z,61.17
2023-05-25T10:16:41.167Z,62.14
2023-05-25T10:19:18.431Z,61.86
2023-05-25T10:21:52.871Z,59.66
2023-05-25T10:24:30.534Z,58.47
2023-05-25T10:27:10.818Z,58.67
2023-05-25T10:29:41.211Z,59.42
2023-05-25T10:32:10.446Z,58.73
2023-05-25T10:34:38.804Z,58.51
2023-05-25T10:37:08.304Z,59.83
2023-05-25T10:39:38.634Z,60.31
2023-05-25T10:42:07.840Z,58.85
2023-05-25T10:44:36.208Z,59.87
2023-05-25T10:47:06.209Z,58.66
2023-05-25T10:49:35.715Z,59.86
2023-05-25T10:52:04.597Z,58.34
2023-05-25T10:54:36.201Z,59.92
2023-05-25T10:57:33.138Z,59.00
2023-05-25T11:00:08.780Z,59.43
2023-05-25T11:02:51.614Z,59.10
2023-05-25T11:05:35.273Z,58.89
2023-05-25T11:08:12.249Z,60.91
2023-05-25T11:10:54.203Z,58.88
2023-05-25T11:13:33.767Z,59.21
2023-05-25T11:16:22.085Z,59.83
2023-05-25T11:18:54.825Z,58.75
2023-05-25T11:21:40.783Z,59.34
2023-05-25T11:24:15.858Z,59.92
2023-05-25T11:26:59.733Z,58.58
2023-05-25T11:29:33.102Z,57.47
2023-05-25T11:32:02.796Z,57.66
2023-05-25T11:34:33.171Z,58.09
2023-05-25T11:37:03.680Z,58.74
2023-05-25T11:39:32.590Z,57.95
2023-05-25T11:42:06.926Z,57.55
2023-05-25T11:44:39.115Z,56.34
2023-05-25T11:47:10.157Z,56.44
2023-05-25T11:49:44.254Z,56.86
2023-05-25T11:52:15.195Z,55.46
2023-05-25T11:54:43.920Z,57.05
2023-05-25T11:57:16.539Z,54.87
2023-05-25T11:59:51.496Z,54.52
2023-05-25T12:02:23.029Z,54.14
2023-05-25T12:05:02.590Z,53.68
2023-05-25T12:07:36.709Z,54.89
2023-05-25T12:10:10.706Z,54.13
2023-05-25T12:12:41.837Z,55.49
2023-05-25T12:15:14.748Z,56.45
2023-05-25T12:17:44.789Z,54.27
2023-05-25T12:20:15.209Z,54.48
2023-05-25T12:22:45.077Z,53.57
2023-05-25T12:25:14.708Z,54.55
2023-05-25T12:27:43.773Z,54.11
2023-05-25T12:30:13.989Z,52.00
2023-05-25T12:32:55.550Z,52.87
2023-05-25T12:35:23.926Z,54.86
2023-05-25T12:37:52.388Z,51.71
2023-05-25T12:40:24.534Z,52.43
2023-05-25T12:42:59.280Z,52.33
2023-05-25T12:45:28.902Z,52.84
2023-05-25T12:47:58.759Z,50.24
2023-05-25T12:50:29.518Z,50.08
2023-05-25T12:53:03.211Z,50.83
2023-05-25T12:55:33.026Z,51.67
2023-05-25T12:58:06.262Z,50.78
2023-05-25T13:00:38.395Z,50.83
2023-05-25T13:03:08.426Z,50.91
2023-05-25T13:05:38.677Z,53.24
2023-05-25T13:08:07.704Z,51.47
2023-05-25T13:10:38.434Z,52.96
2023-05-25T13:13:06.694Z,50.71
2023-05-25T13:15:36.343Z,52.07
2023-05-25T13:18:05.465Z,51.48
2023-05-25T13:20:34.453Z,51.83
2023-05-25T13:23:03.255Z,51.58
2023-05-25T13:25:31.650Z,51.89
2023-05-25T13:28:01.231Z,51.41
2023-05-25T13:30:29.614Z,50.19
2023-05-25T13:32:59.571Z,51.14
2023-05-25T13:35:41.355Z,51.29
2023-05-25T13:38:10.368Z,50.82
2023-05-25T13:40:38.628Z,50.91
2023-05-25T13:43:07.400Z,50.05
2023-05-25T13:45:35.725Z,48.70
2023-05-25T13:48:05.587Z,49.15
2023-05-25T13:50:33.887Z,49.47
2023-05-25T13:53:02.170Z,48.76
2023-05-25T13:55:30.786Z,48.01
2023-05-25T13:57:59.022Z,48.78
2023-05-25T14:00:27.619Z,50.07
2023-05-25T14:02:56.027Z,49.33
2023-05-25T14:05:26.125Z,49.04
2023-05-25T14:07:56.326Z,48.95
2023-05-25T14:10:25.449Z,48.74
2023-05-25T14:12:53.802Z,49.21
2023-05-25T14:15:22.080Z,48.53
2023-05-25T14:17:50.776Z,48.54
2023-05-25T14:20:25.227Z,48.85
2023-05-25T14:22:55.234Z,48.96
2023-05-25T14:25:23.587Z,49.28
2023-05-25T14:27:51.922Z,49.61
2023-05-25T14:30:20.994Z,48.34
2023-05-25T14:32:49.307Z,49.46
2023-05-25T14:35:17.583Z,48.50
2023-05-25T14:37:45.826Z,48.49
2023-05-25T14:40:15.643Z,48.49
2023-05-25T14:42:43.882Z,48.12
2023-05-25T14:45:14.494Z,49.67
2023-05-25T14:47:44.137Z,50.11
2023-05-25T14:50:12.893Z,50.42
2023-05-25T14:52:41.996Z,49.04
2023-05-25T14:55:11.580Z,48.68
2023-05-25T14:57:41.420Z,49.42
2023-05-25T15:00:11.481Z,48.81
2023-05-25T15:02:39.801Z,48.93
2023-05-25T15:05:09.824Z,49.84
2023-05-25T15:07:38.138Z,48.76
2023-05-25T15:10:08.501Z,48.61
2023-05-25T15:12:36.680Z,49.06
2023-05-25T15:15:09.176Z,48.00
2023-05-25T15:17:37.305Z,48.32
2023-05-25T15:20:06.466Z,49.08
2023-05-25T15:22:34.725Z,47.98
2023-05-25T15:25:02.985Z,48.50
2023-05-25T15:27:32.236Z,49.19
2023-05-25T15:30:00.494Z,48.93
2023-05-25T15:32:30.202Z,48.80
2023-05-25T15:34:58.977Z,48.46
2023-05-25T15:37:27.270Z,49.86
2023-05-25T15:39:55.814Z,49.04
2023-05-25T15:42:24.059Z,49.13
2023-05-25T15:44:52.292Z,49.62
2023-05-25T15:47:20.491Z,48.99
2023-05-25T15:49:50.003Z,49.82
2023-05-25T15:52:18.275Z,50.34
2023-05-25T15:54:46.510Z,49.87
2023-05-25T15:57:14.891Z,50.28
2023-05-25T15:59:43.088Z,49.38
2023-05-25T16:02:11.434Z,50.64
2023-05-25T16:04:43.268Z,50.95
2023-05-25T16:07:14.162Z,51.50
2023-05-25T16:09:42.356Z,49.10
2023-05-25T16:12:10.597Z,49.80
2023-05-25T16:14:38.819Z,50.04
2023-05-25T16:17:07.103Z,51.27
2023-05-25T16:19:35.342Z,51.56
2023-05-25T16:22:03.506Z,51.05
2023-05-25T16:24:33.077Z,50.02
2023-05-25T16:27:02.569Z,51.02
2023-05-25T16:29:30.990Z,51.73
2023-05-25T16:31:59.225Z,51.46
2023-05-25T16:34:27.490Z,50.76
2023-05-25T16:36:56.147Z,51.52
2023-05-25T16:39:24.392Z,51.91
2023-05-25T16:41:53.980Z,52.08
2023-05-25T16:44:22.234Z,52.61
2023-05-25T16:46:50.466Z,52.33
2023-05-25T16:49:18.745Z,51.16
2023-05-25T16:51:46.980Z,51.37
2023-05-25T16:54:16.410Z,51.72
2023-05-25T16:56:44.589Z,52.08
2023-05-25T16:59:14.209Z,51.28
2023-05-25T17:01:42.584Z,50.13
2023-05-25T17:06:39.443Z,51.82
2023-05-25T17:09:08.663Z,51.68
2023-05-25T17:11:36.934Z,52.14
2023-05-25T17:14:06.269Z,51.24
2023-05-25T17:16:35.848Z,51.20
2023-05-25T17:19:04.167Z,51.81
2023-05-25T17:21:32.434Z,51.90
2023-05-25T17:24:00.653Z,52.50
2023-05-25T17:26:28.895Z,51.67
2023-05-25T17:29:00.637Z,52.53
2023-05-25T17:31:29.027Z,51.94
2023-05-25T17:33:58.997Z,51.52
2023-05-25T17:36:28.965Z,52.32
2023-05-25T17:38:57.171Z,52.06
2023-05-25T17:41:26.269Z,51.69
2023-05-25T17:43:54.504Z,51.83
2023-05-25T17:46:23.075Z,52.68
2023-05-25T17:48:51.501Z,52.45
2023-05-25T17:51:21.734Z,52.12
2023-05-25T17:53:50.619Z,52.74
2023-05-25T17:56:19.297Z,53.63
2023-05-25T17:58:48.122Z,52.24
2023-05-25T18:01:17.191Z,52.14
2023-05-25T18:04:16.105Z,52.12
2023-05-25T18:06:51.531Z,52.77
2023-05-25T18:09:19.886Z,52.00
2023-05-25T18:11:48.576Z,52.34
2023-05-25T18:14:16.792Z,52.76
2023-05-25T18:16:45.232Z,52.27
2023-05-25T18:19:15.302Z,52.26
2023-05-25T18:21:43.603Z,51.96
2023-05-25T18:24:13.228Z,51.99
2023-05-25T18:26:42.559Z,52.69
2023-05-25T18:29:10.799Z,52.99
2023-05-25T18:31:45.488Z,53.50
2023-05-25T18:34:14.408Z,53.91
2023-05-25T18:36:42.815Z,54.28
2023-05-25T18:39:12.684Z,54.80
2023-05-25T18:41:42.500Z,55.49
2023-05-25T18:44:10.753Z,55.68
2023-05-25T18:46:40.442Z,55.74
2023-05-25T18:49:08.712Z,56.56
2023-05-25T18:51:37.421Z,57.05
2023-05-25T18:54:05.702Z,56.54
2023-05-25T18:56:35.268Z,57.32
2023-05-25T18:59:03.433Z,56.96
2023-05-25T19:01:31.771Z,57.40
2023-05-25T19:04:00.133Z,57.74
2023-05-25T19:06:28.430Z,57.81
2023-05-25T19:08:56.774Z,57.84
2023-05-25T19:11:25.006Z,57.58
2023-05-25T19:13:54.610Z,57.86
2023-05-25T19:16:22.907Z,58.37
2023-05-25T19:18:51.154Z,58.55
2023-05-25T19:21:19.373Z,58.51
2023-05-25T19:23:48.581Z,58.99
2023-05-25T19:26:17.215Z,59.29
2023-05-25T19:28:45.524Z,59.35
2023-05-25T19:31:15.136Z,59.86
2023-05-25T19:33:43.485Z,59.91
2023-05-25T19:36:11.762Z,60.32
2023-05-25T19:38:41.719Z,60.70
2023-05-25T19:41:10.499Z,60.50
2023-05-25T19:43:38.771Z,60.84
2023-05-25T19:46:07.140Z,61.01
2023-05-25T19:48:37.098Z,61.59
2023-05-25T19:51:06.408Z,61.27
2023-05-25T19:53:34.627Z,61.32
2023-05-25T19:56:03.412Z,61.69
2023-05-25T19:58:31.679Z,61.91
2023-05-25T20:01:00.075Z,62.28
2023-05-25T20:03:28.422Z,62.39
2023-05-25T20:06:04.740Z,62.65
2023-05-25T20:08:33.189Z,62.97
2023-05-25T20:11:01.563Z,62.72
2023-05-25T20:13:29.888Z,62.77
2023-05-25T20:15:58.547Z,63.04
2023-05-25T20:18:26.780Z,63.26
2023-05-25T20:20:56.944Z,63.66
2023-05-25T20:23:26.537Z,62.94
2023-05-25T20:25:54.749Z,63.29
2023-05-25T20:28:23.128Z,62.71
2023-05-25T20:30:51.552Z,63.29
2023-05-25T20:33:19.800Z,63.62
2023-05-25T20:35:48.213Z,63.87
2023-05-25T20:38:16.578Z,64.16
2023-05-25T20:40:46.351Z,64.24
2023-05-25T20:43:14.656Z,65.08
2023-05-25T20:45:42.979Z,64.57
2023-05-25T20:48:11.380Z,65.28
2023-05-25T20:50:39.640Z,65.44
2023-05-25T20:53:14.207Z,64.87
2023-05-25T20:55:42.541Z,64.65
2023-05-25T20:58:12.224Z,64.15
2023-05-25T21:00:40.722Z,64.02
2023-05-25T21:03:09.374Z,63.93
2023-05-25T21:05:38.173Z,63.41
2023-05-25T21:08:06.462Z,63.69
2023-05-25T21:10:34.768Z,63.38
2023-05-25T21:13:03.094Z,63.56
2023-05-25T21:15:32.761Z,63.43
2023-05-25T21:18:03.297Z,63.08
2023-05-25T21:20:31.672Z,62.68
2023-05-25T21:23:00.693Z,62.85
2023-05-25T21:25:28.929Z,63.16
2023-05-25T21:27:57.392Z,62.58
2023-05-25T21:30:26.581Z,63.17
2023-05-25T21:32:56.153Z,63.63
2023-05-25T21:35:24.450Z,63.17
2023-05-25T21:37:52.768Z,62.73
2023-05-25T21:40:20.966Z,63.08
2023-05-25T21:42:51.095Z,63.64
2023-05-25T21:45:19.782Z,62.90
2023-05-25T21:47:48.213Z,63.60
2023-05-25T21:50:18.142Z,63.81
2023-05-25T21:52:46.505Z,64.00
2023-05-25T21:55:15.178Z,63.59
2023-05-25T21:57:43.858Z,64.74
2023-05-25T22:00:14.187Z,64.79
2023-05-25T22:02:42.431Z,65.53
2023-05-25T22:05:11.274Z,66.35
2023-05-25T22:07:41.748Z,64.59
2023-05-25T22:10:10.714Z,65.15
2023-05-25T22:12:38.987Z,65.40
2023-05-25T22:15:09.029Z,65.30
2023-05-25T22:17:37.283Z,65.12
2023-05-25T22:20:08.241Z,63.87
2023-05-25T22:22:37.834Z,64.99
2023-05-25T22:25:08.404Z,64.40
2023-05-25T22:27:36.672Z,64.49
2023-05-25T22:30:06.480Z,64.27
2023-05-25T22:32:35.172Z,64.24
2023-05-25T22:35:03.818Z,65.18
2023-05-25T22:37:32.436Z,64.88
2023-05-25T22:40:00.695Z,65.34
2023-05-25T22:42:30.244Z,65.14
2023-05-25T22:44:58.606Z,64.66
2023-05-25T22:47:26.880Z,64.72
2023-05-25T22:49:55.157Z,64.40
2023-05-25T22:52:23.413Z,64.68
2023-05-25T22:54:51.684Z,64.84
2023-05-25T22:57:19.875Z,64.55
2023-05-25T22:59:49.939Z,64.62
2023-05-25T23:02:18.170Z,65.19
2023-05-25T23:04:46.459Z,65.11
2023-05-25T23:07:14.707Z,65.69
2023-05-25T23:09:42.971Z,65.45
2023-05-25T23:12:11.277Z,65.81
2023-05-25T23:14:39.533Z,66.00
2023-05-25T23:17:09.085Z,66.29
2023-05-25T23:19:38.662Z,66.61
2023-05-25T23:22:07.129Z,66.97
2023-05-25T23:24:35.401Z,66.39
2023-05-25T23:27:05.173Z,67.14
2023-05-25T23:29:33.456Z,67.31
2023-05-25T23:32:01.829Z,67.49
2023-05-25T23:34:31.632Z,67.29
2023-05-25T23:37:01.456Z,67.20
2023-05-25T23:39:30.933Z,67.65
2023-05-25T23:41:59.213Z,68.47
2023-05-25T23:44:27.483Z,68.03
2023-05-25T23:46:55.802Z,67.80
2023-05-25T23:49:24.136Z,67.03
2023-05-25T23:51:53.774Z,67.53
2023-05-25T23:54:22.027Z,67.46
2023-05-25T23:56:50.383Z,67.92
2023-05-25T23:59:18.649Z,68.63
